Wien Ottakring/Starchant
Wetterdaten: aktuell Mittwoch, 18.09.2019 22:25
Datum Zeit Temp. I. Temp. A. Feuchte I. Feuchte A. Luftdruck Regen Wind Richtung Richtung Taupunkt Windchill Windben Empfang
18.09.2019 22:25 24,1 C 10,9 C 31 % 57 % 1024,8 hPa 0,0 l/m 0,0 km/h N 0 2,7 C 10,9 C 0,0 km/h 85,09 %
18.09.2019 21:25 24,1 C 12,1 C 29 % 50 % 1024,6 hPa 0,0 l/m 0,0 km/h N-NW 337 2,0 C 12,1 C 3,2 km/h 82,46 %
18.09.2019 20:25 24,1 C 12,4 C 29 % 48 % 1024,0 hPa 0,0 l/m 0,0 km/h N-NW 337 1,7 C 12,4 C 1,6 km/h 83,33 %
18.09.2019 19:25 24,1 C 13,4 C 28 % 43 % 1023,2 hPa 0,0 l/m 0,0 km/h NW 315 1,1 C 13,4 C 1,6 km/h 85,09 %
18.09.2019 18:25 24,2 C 15,1 C 26 % 39 % 1022,7 hPa 0,0 l/m 1,6 km/h NW 315 1,3 C 15,1 C 4,8 km/h 84,21 %
18.09.2019 17:25 24,3 C 16,3 C 26 % 32 % 1022,6 hPa 0,0 l/m 1,6 km/h N 360 -0,4 C 16,3 C 4,8 km/h 84,21 %
18.09.2019 16:25 24,2 C 16,8 C 26 % 30 % 1022,8 hPa 0,0 l/m 8,0 km/h N-NW 337 -0,9 C 16,8 C 17,7 km/h 83,33 %
18.09.2019 15:25 24,1 C 17,2 C 27 % 30 % 1023,0 hPa 0,0 l/m 3,2 km/h N-NW 337 -0,5 C 17,2 C 11,3 km/h 83,33 %
18.09.2019 14:25 23,9 C 17,7 C 31 % 33 % 1023,5 hPa 0,0 l/m 3,2 km/h SO 135 1,2 C 17,7 C 6,4 km/h 85,09 %
18.09.2019 13:25 23,7 C 17,4 C 30 % 35 % 1024,0 hPa 0,0 l/m 1,6 km/h O-SO 112 1,8 C 17,4 C 8,0 km/h 84,21 %
18.09.2019 12:25 23,3 C 16,3 C 30 % 39 % 1024,3 hPa 0,0 l/m 1,6 km/h NW 315 2,3 C 16,3 C 6,4 km/h 83,33 %
18.09.2019 11:25 23,2 C 15,3 C 31 % 44 % 1024,5 hPa 0,0 l/m 1,6 km/h N 360 3,1 C 15,3 C 6,4 km/h 84,21 %
18.09.2019 10:25 23,3 C 14,5 C 31 % 51 % 1024,4 hPa 0,0 l/m 3,2 km/h NW 315 4,5 C 14,5 C 9,7 km/h 85,96 %
18.09.2019 09:25 23,5 C 13,3 C 33 % 55 % 1024,0 hPa 0,0 l/m 6,4 km/h N-NW 337 4,5 C 13,3 C 17,7 km/h 82,46 %
18.09.2019 08:25 23,7 C 12,1 C 34 % 61 % 1023,5 hPa 0,0 l/m 1,6 km/h NW 315 4,8 C 12,1 C 8,0 km/h 82,46 %
18.09.2019 07:25 23,6 C 9,8 C 33 % 68 % 1022,6 hPa 0,0 l/m 0,0 km/h N 0 4,2 C 9,8 C 0,0 km/h 83,33 %
18.09.2019 06:25 23,6 C 10,4 C 32 % 61 % 1021,8 hPa 0,0 l/m 0,0 km/h W 270 3,2 C 10,4 C 8,0 km/h 84,21 %
18.09.2019 05:25 23,7 C 11,4 C 31 % 59 % 1020,8 hPa 0,0 l/m 4,8 km/h N-NW 337 3,7 C 11,4 C 22,5 km/h 82,46 %
18.09.2019 04:25 24,1 C 12,1 C 32 % 57 % 1019,9 hPa 0,0 l/m 6,4 km/h NW 315 3,8 C 12,1 C 20,9 km/h 78,07 %
18.09.2019 03:25 24,4 C 13,2 C 36 % 64 % 1019,0 hPa 0,0 l/m 3,2 km/h N-NW 337 6,5 C 13,2 C 12,9 km/h 85,96 %
18.09.2019 02:25 24,8 C 14,2 C 39 % 67 % 1018,6 hPa 0,0 l/m 4,8 km/h NW 315 8,2 C 14,2 C 11,3 km/h 82,46 %
18.09.2019 01:25 25,0 C 15,1 C 41 % 71 % 1017,8 hPa 0,0 l/m 1,6 km/h NW 315 9,9 C 15,1 C 4,8 km/h 84,21 %
18.09.2019 00:25 25,2 C 15,3 C 42 % 74 % 1017,4 hPa 0,0 l/m 0,0 km/h S 180 10,7 C 15,3 C 6,4 km/h 82,46 %
18.09.2019 00:00 25,2 C 15,1 C 42 % 74 % 1017,2 hPa 0,0 l/m 0,0 km/h SO 135 10,5 C 15,1 C 3,2 km/h 82,46 %
_ Min-Zeit 10:45 07:05 15:40 15:15 00:00 - 00:00 - - 16:05 07:05 07:05 02:15
Minimum _ 23,2 C 9,8 C 26 % 29 % 1017,2 hPa - 0,0 km/h - - -1,0 C 9,8 C 0,0 km/h 78,07 %
_ Max-Zeit 00:00 14:20 00:00 00:00 22:25 00:00 16:25 - - 00:15 14:20 04:30 07:30
Maximum _ 25,2 C 17,7 C 42 % 74 % 1024,8 hPa 0,0 l/m 8,0 km/h
N-NW
- - 10,7 C 17,7 C 24,1 km/h
N
86,84 %
Durchschnitt _ 24,0 C 14,1 C 32 % 50 % 1022,3 hPa #0,0 l/m 2,2 km/h N-NW - 3,4 C 14,1 C 8,3 km/h 83,41 %
Davis Vantage Vue